createdAt,value
2022-08-06T00:00:06.880Z,5.40
2022-08-06T00:00:51.330Z,5.10
2022-08-06T00:01:51.381Z,5.50
2022-08-06T00:02:51.335Z,5.70
2022-08-06T00:03:51.342Z,5.40
2022-08-06T00:04:51.341Z,5.70
2022-08-06T00:05:52.161Z,5.70
2022-08-06T00:06:51.349Z,5.50
2022-08-06T00:07:51.350Z,5.40
2022-08-06T00:08:52.243Z,5.60
2022-08-06T00:09:57.006Z,5.40
2022-08-06T00:10:51.352Z,5.30
2022-08-06T00:11:59.453Z,5.50
2022-08-06T00:12:51.358Z,5.60
2022-08-06T00:13:51.359Z,5.10
2022-08-06T00:14:51.360Z,5.70
2022-08-06T00:16:09.079Z,5.50
2022-08-06T00:16:54.324Z,5.40
2022-08-06T00:17:51.366Z,5.60
2022-08-06T00:18:51.369Z,5.70
2022-08-06T00:19:58.294Z,5.70
2022-08-06T00:20:51.373Z,5.40
2022-08-06T00:21:51.374Z,5.50
2022-08-06T00:22:51.375Z,5.60
2022-08-06T00:23:55.053Z,5.70
2022-08-06T00:24:51.382Z,5.90
2022-08-06T00:25:53.022Z,5.40
2022-08-06T00:27:04.967Z,5.70
2022-08-06T00:27:52.287Z,5.70
2022-08-06T00:28:51.389Z,5.50
2022-08-06T00:29:51.635Z,5.70
2022-08-06T00:30:51.391Z,5.60
2022-08-06T00:31:51.395Z,5.60
2022-08-06T00:32:52.709Z,5.70
2022-08-06T00:33:57.301Z,5.70
2022-08-06T00:34:51.403Z,5.90
2022-08-06T00:35:51.399Z,5.90
2022-08-06T00:36:51.403Z,6.00
2022-08-06T00:37:57.639Z,5.80
2022-08-06T00:38:51.409Z,5.80
2022-08-06T00:39:51.485Z,5.80
2022-08-06T00:40:58.616Z,5.70
2022-08-06T00:41:51.417Z,5.60
2022-08-06T00:42:51.414Z,5.60
2022-08-06T00:43:51.417Z,5.50
2022-08-06T00:44:51.416Z,5.50
2022-08-06T00:45:51.420Z,5.70
2022-08-06T00:46:51.417Z,5.80
2022-08-06T00:48:02.995Z,5.90
2022-08-06T00:48:54.089Z,6.00
2022-08-06T00:49:51.423Z,5.70
2022-08-06T00:50:51.428Z,5.80
2022-08-06T00:51:52.359Z,5.80
2022-08-06T00:52:51.429Z,5.90
2022-08-06T00:53:54.909Z,5.50
2022-08-06T00:54:51.431Z,5.70
2022-08-06T00:55:59.780Z,5.60
2022-08-06T00:56:51.437Z,5.50
2022-08-06T00:57:51.438Z,5.90
2022-08-06T00:58:51.444Z,5.70
2022-08-06T00:59:51.991Z,5.80
2022-08-06T01:00:51.775Z,5.40
2022-08-06T01:01:51.698Z,5.30
2022-08-06T01:02:51.515Z,5.80
2022-08-06T01:03:52.654Z,5.90
2022-08-06T01:04:51.452Z,5.60
2022-08-06T01:06:53.181Z,5.80
2022-08-06T01:06:57.450Z,5.60
2022-08-06T01:07:52.771Z,5.60
2022-08-06T01:08:51.454Z,5.90
2022-08-06T01:09:57.887Z,5.40
2022-08-06T01:10:51.972Z,5.70
2022-08-06T01:11:51.464Z,5.70
2022-08-06T01:12:51.467Z,5.60
2022-08-06T01:14:03.733Z,5.40
2022-08-06T01:15:02.483Z,6.00
2022-08-06T01:16:08.568Z,5.70
2022-08-06T01:16:51.470Z,5.60
2022-08-06T01:17:56.161Z,5.90
2022-08-06T01:18:52.704Z,5.70
2022-08-06T01:21:21.822Z,5.50
2022-08-06T01:21:57.218Z,5.80
2022-08-06T01:22:29.867Z,5.90
2022-08-06T01:22:51.696Z,6.10
2022-08-06T01:23:51.483Z,5.40
2022-08-06T01:24:51.486Z,6.00
2022-08-06T01:25:51.483Z,5.70
2022-08-06T01:26:54.308Z,5.50
2022-08-06T01:27:51.492Z,5.50
2022-08-06T01:28:51.938Z,5.80
2022-08-06T01:29:51.494Z,5.80
2022-08-06T01:30:51.495Z,5.70
2022-08-06T01:31:52.265Z,5.70
2022-08-06T01:32:51.495Z,5.40
2022-08-06T01:33:51.498Z,5.70
2022-08-06T01:34:53.340Z,5.40
2022-08-06T01:35:54.831Z,5.70
2022-08-06T01:36:51.505Z,5.30
2022-08-06T01:37:51.503Z,5.50
2022-08-06T01:38:59.304Z,5.50
2022-08-06T01:39:53.426Z,5.90
2022-08-06T01:40:52.181Z,5.60
2022-08-06T01:41:54.949Z,5.40
2022-08-06T01:42:54.269Z,5.70
2022-08-06T01:44:05.889Z,5.70
2022-08-06T01:44:51.517Z,6.00
2022-08-06T01:45:54.802Z,6.00
2022-08-06T01:46:51.520Z,5.80
2022-08-06T01:47:52.272Z,6.10
2022-08-06T01:48:51.525Z,5.80
2022-08-06T01:50:00.184Z,5.70
2022-08-06T01:50:51.524Z,5.70
2022-08-06T01:52:15.265Z,5.60
2022-08-06T01:52:59.421Z,5.40
2022-08-06T01:54:06.917Z,5.10
2022-08-06T01:54:52.536Z,5.60
2022-08-06T01:55:58.531Z,5.50
2022-08-06T01:56:56.911Z,5.50
2022-08-06T01:58:07.576Z,5.30
2022-08-06T01:58:51.537Z,5.60
2022-08-06T01:59:51.544Z,5.70
2022-08-06T02:00:51.667Z,5.70
2022-08-06T02:01:54.520Z,5.60
2022-08-06T02:02:51.543Z,5.70
2022-08-06T02:03:58.543Z,5.30
2022-08-06T02:04:52.746Z,5.60
2022-08-06T02:05:53.364Z,5.60
2022-08-06T02:06:51.545Z,5.80
2022-08-06T02:08:33.881Z,5.50
2022-08-06T02:08:51.553Z,5.70
2022-08-06T02:09:51.554Z,5.30
2022-08-06T02:10:51.652Z,5.50
2022-08-06T02:12:03.809Z,5.60
2022-08-06T02:12:51.555Z,5.50
2022-08-06T02:13:51.561Z,5.80
2022-08-06T02:14:51.561Z,5.50
2022-08-06T02:15:58.765Z,5.90
2022-08-06T02:16:51.563Z,5.90
2022-08-06T02:18:04.025Z,5.90
2022-08-06T02:18:51.568Z,5.90
2022-08-06T02:20:11.306Z,5.90
2022-08-06T02:20:53.021Z,5.60
2022-08-06T02:21:53.112Z,5.90
2022-08-06T02:22:51.572Z,5.60
2022-08-06T02:23:51.573Z,5.70
2022-08-06T02:24:51.574Z,5.90
2022-08-06T02:25:52.022Z,5.30
2022-08-06T02:26:51.583Z,5.80
2022-08-06T02:27:53.414Z,6.10
2022-08-06T02:28:51.584Z,5.80
2022-08-06T02:30:06.064Z,6.00
2022-08-06T02:30:51.584Z,5.90
2022-08-06T02:31:51.968Z,6.10
2022-08-06T02:32:51.584Z,6.40
2022-08-06T02:34:02.578Z,6.00
2022-08-06T02:34:51.587Z,6.30
2022-08-06T02:35:51.844Z,6.30
2022-08-06T02:36:51.592Z,6.30
2022-08-06T02:38:02.278Z,6.20
2022-08-06T02:38:52.594Z,6.30
2022-08-06T02:39:52.671Z,6.50
2022-08-06T02:40:51.599Z,5.80
2022-08-06T02:41:55.307Z,6.40
2022-08-06T02:42:51.606Z,6.30
2022-08-06T02:43:51.603Z,6.20
2022-08-06T02:44:51.601Z,6.30
2022-08-06T02:45:58.318Z,6.10
2022-08-06T02:46:51.606Z,6.00
2022-08-06T02:48:00.703Z,6.10
2022-08-06T02:48:51.619Z,5.90
2022-08-06T02:49:57.838Z,5.90
2022-08-06T02:50:51.610Z,5.70
2022-08-06T02:52:12.068Z,5.80
2022-08-06T02:52:57.612Z,5.90
2022-08-06T02:54:04.424Z,5.70
2022-08-06T02:54:51.619Z,5.70
2022-08-06T02:55:51.620Z,5.50
2022-08-06T02:56:51.618Z,5.40
2022-08-06T02:57:52.112Z,5.70
2022-08-06T02:58:58.425Z,5.70
2022-08-06T02:59:55.233Z,5.90
2022-08-06T03:00:52.587Z,5.70
2022-08-06T03:01:51.737Z,5.60
2022-08-06T03:02:51.633Z,5.70
2022-08-06T03:03:54.735Z,5.70
2022-08-06T03:04:56.679Z,5.70
2022-08-06T03:05:54.975Z,5.40
2022-08-06T03:06:51.640Z,5.50
2022-08-06T03:07:51.638Z,5.30
2022-08-06T03:08:51.644Z,5.50
2022-08-06T03:09:51.637Z,5.60
2022-08-06T03:10:51.641Z,5.40
2022-08-06T03:11:51.640Z,5.40
2022-08-06T03:12:51.644Z,5.40
2022-08-06T03:13:51.645Z,5.50
2022-08-06T03:15:07.270Z,5.50
2022-08-06T03:16:00.201Z,5.40
2022-08-06T03:16:51.649Z,5.80
2022-08-06T03:17:51.643Z,5.80
2022-08-06T03:19:54.677Z,5.90
2022-08-06T03:19:57.931Z,5.90
2022-08-06T03:20:51.654Z,5.90
2022-08-06T03:21:57.309Z,5.80
2022-08-06T03:22:52.190Z,6.00
2022-08-06T03:23:51.657Z,6.00
2022-08-06T03:24:51.658Z,6.00
2022-08-06T03:25:51.655Z,5.80
2022-08-06T03:26:51.661Z,5.90
2022-08-06T03:27:51.661Z,5.50
2022-08-06T03:28:51.666Z,5.60
2022-08-06T03:29:58.615Z,5.80
2022-08-06T03:30:55.335Z,5.50
2022-08-06T03:31:59.146Z,5.40
2022-08-06T03:32:52.870Z,5.30
2022-08-06T03:33:53.922Z,5.20
2022-08-06T03:34:52.350Z,5.30
2022-08-06T03:35:54.217Z,5.70
2022-08-06T03:36:51.676Z,5.50
2022-08-06T03:38:00.084Z,5.40
2022-08-06T03:38:54.545Z,5.50
2022-08-06T03:39:53.736Z,5.90
2022-08-06T03:40:52.064Z,5.50
2022-08-06T03:42:08.514Z,5.60
2022-08-06T03:42:53.266Z,5.70
2022-08-06T03:44:02.725Z,5.70
2022-08-06T03:44:51.683Z,6.10
2022-08-06T03:45:55.926Z,6.10
2022-08-06T03:46:51.686Z,6.40
2022-08-06T03:48:07.230Z,6.10
2022-08-06T03:48:51.691Z,6.40
2022-08-06T03:49:52.845Z,6.20
2022-08-06T03:50:51.695Z,6.30
2022-08-06T03:51:51.690Z,6.30
2022-08-06T03:52:51.697Z,6.20
2022-08-06T03:53:51.741Z,6.20
2022-08-06T03:54:51.696Z,6.00
2022-08-06T03:55:51.697Z,6.30
2022-08-06T03:56:51.700Z,6.50
2022-08-06T03:57:51.701Z,6.50
2022-08-06T03:58:51.726Z,6.60
2022-08-06T03:59:58.346Z,6.70
2022-08-06T04:00:51.808Z,6.50
2022-08-06T04:01:51.768Z,6.20
2022-08-06T04:02:52.015Z,6.30
2022-08-06T04:03:51.708Z,6.10
2022-08-06T04:04:51.710Z,6.40
2022-08-06T04:05:51.710Z,6.30
2022-08-06T04:06:52.025Z,6.20
2022-08-06T04:07:55.131Z,5.90
2022-08-06T04:08:51.715Z,6.30
2022-08-06T04:10:00.588Z,6.20
2022-08-06T04:10:57.268Z,6.30
2022-08-06T04:12:37.402Z,6.30
2022-08-06T04:13:07.341Z,6.40
2022-08-06T04:14:07.440Z,6.50
2022-08-06T04:14:51.727Z,6.80
2022-08-06T04:15:51.725Z,6.60
2022-08-06T04:16:51.725Z,6.60
2022-08-06T04:17:51.730Z,6.30
2022-08-06T04:18:51.727Z,6.30
2022-08-06T04:19:51.727Z,6.40
2022-08-06T04:20:53.020Z,6.30
2022-08-06T04:22:59.772Z,6.50
2022-08-06T04:23:05.904Z,6.40
2022-08-06T04:23:53.267Z,6.30
2022-08-06T04:24:51.733Z,6.20
2022-08-06T04:25:51.733Z,6.10
2022-08-06T04:26:51.734Z,6.20
2022-08-06T04:27:54.208Z,6.30
2022-08-06T04:28:57.116Z,6.30
2022-08-06T04:29:59.055Z,6.20
2022-08-06T04:30:51.742Z,6.20
2022-08-06T04:32:20.442Z,6.20
2022-08-06T04:33:00.842Z,6.50
2022-08-06T04:33:51.977Z,5.90
2022-08-06T04:36:06.771Z,6.20
2022-08-06T04:36:08.274Z,6.40
2022-08-06T04:36:54.179Z,5.90
2022-08-06T04:37:53.195Z,6.10
2022-08-06T04:38:52.111Z,6.10
2022-08-06T04:39:51.827Z,6.00
2022-08-06T04:40:53.214Z,5.70
2022-08-06T04:41:56.906Z,6.20
2022-08-06T04:42:51.765Z,5.90
2022-08-06T04:43:55.258Z,6.00
2022-08-06T04:44:59.409Z,6.00
2022-08-06T04:46:14.116Z,6.20
2022-08-06T04:46:51.767Z,6.20
2022-08-06T04:47:51.766Z,5.80
2022-08-06T04:48:56.709Z,5.70
2022-08-06T04:50:01.272Z,5.70
2022-08-06T04:50:54.686Z,6.30
2022-08-06T04:52:45.461Z,5.90
2022-08-06T04:52:52.460Z,6.10
2022-08-06T04:53:57.442Z,7.50
2022-08-06T04:54:51.774Z,6.10
2022-08-06T04:56:02.927Z,6.30
2022-08-06T04:56:51.773Z,6.10
2022-08-06T04:57:56.398Z,6.30
2022-08-06T04:58:51.774Z,5.90
2022-08-06T04:59:51.778Z,6.00
2022-08-06T05:01:00.725Z,5.80
2022-08-06T05:01:57.193Z,6.20
2022-08-06T05:02:51.782Z,6.10
2022-08-06T05:04:08.870Z,6.10
2022-08-06T05:04:51.787Z,6.10
2022-08-06T05:05:51.785Z,6.00
2022-08-06T05:06:51.788Z,5.70
2022-08-06T05:07:55.992Z,5.80
2022-08-06T05:08:52.048Z,5.90
2022-08-06T05:09:54.236Z,6.00
2022-08-06T05:10:51.821Z,6.00
2022-08-06T05:11:58.234Z,6.00
2022-08-06T05:12:51.796Z,6.00
2022-08-06T05:13:52.044Z,6.10
2022-08-06T05:14:51.799Z,5.50
2022-08-06T05:15:51.800Z,5.80
2022-08-06T05:16:53.717Z,6.10
2022-08-06T05:17:51.800Z,6.00
2022-08-06T05:19:51.804Z,6.00
2022-08-06T05:20:51.804Z,6.20
2022-08-06T05:22:10.890Z,5.70
2022-08-06T05:22:54.874Z,5.60
2022-08-06T05:23:53.296Z,5.50
2022-08-06T05:25:01.096Z,7.10
2022-08-06T05:25:54.636Z,5.30
2022-08-06T05:26:51.813Z,5.60
2022-08-06T05:28:03.359Z,5.70
2022-08-06T05:28:51.817Z,5.60
2022-08-06T05:29:54.734Z,5.30
2022-08-06T05:30:51.817Z,5.50
2022-08-06T05:31:51.820Z,5.30
2022-08-06T05:32:56.624Z,5.50
2022-08-06T05:33:51.826Z,5.40
2022-08-06T05:34:52.876Z,5.30
2022-08-06T05:36:01.373Z,5.40
2022-08-06T05:36:51.831Z,5.30
2022-08-06T05:38:01.611Z,5.70
2022-08-06T05:38:58.755Z,5.40
2022-08-06T05:39:58.779Z,5.20
2022-08-06T05:40:52.698Z,5.10
2022-08-06T05:41:51.837Z,5.00
2022-08-06T05:42:57.311Z,5.10
2022-08-06T05:44:00.347Z,5.30
2022-08-06T05:44:51.836Z,5.10
2022-08-06T05:45:51.838Z,5.30
2022-08-06T05:46:51.837Z,5.30
2022-08-06T05:47:56.118Z,5.20
2022-08-06T05:48:52.284Z,5.30
2022-08-06T05:49:55.209Z,5.40
2022-08-06T05:50:51.843Z,5.60
2022-08-06T05:51:51.846Z,5.20
2022-08-06T05:52:51.846Z,5.20
2022-08-06T05:54:03.907Z,5.20
2022-08-06T05:54:51.894Z,5.20
2022-08-06T05:55:51.856Z,5.60
2022-08-06T05:56:53.643Z,5.60
2022-08-06T05:57:53.859Z,5.70
2022-08-06T05:58:54.826Z,5.80
2022-08-06T05:59:57.703Z,5.60
2022-08-06T06:00:55.290Z,5.60
2022-08-06T06:01:51.860Z,6.00
2022-08-06T06:02:51.858Z,6.10
2022-08-06T06:03:51.944Z,5.60
2022-08-06T06:06:05.005Z,5.50
2022-08-06T06:06:07.296Z,5.60
2022-08-06T06:06:54.883Z,5.80
2022-08-06T06:08:09.568Z,5.60
2022-08-06T06:08:58.826Z,5.70
2022-08-06T06:10:03.053Z,6.00
2022-08-06T06:10:53.202Z,5.30
2022-08-06T06:12:01.499Z,5.20
2022-08-06T06:12:52.727Z,5.60
2022-08-06T06:13:58.567Z,5.60
2022-08-06T06:14:51.929Z,5.70
2022-08-06T06:16:00.081Z,5.40
2022-08-06T06:16:51.876Z,5.20
2022-08-06T06:17:51.878Z,5.40
2022-08-06T06:18:55.957Z,5.50
2022-08-06T06:19:53.248Z,5.70
2022-08-06T06:21:03.567Z,5.40
2022-08-06T06:21:51.882Z,5.50
2022-08-06T06:22:51.888Z,5.30
2022-08-06T06:23:54.613Z,5.20
2022-08-06T06:24:51.889Z,5.70
2022-08-06T06:25:53.514Z,5.40
2022-08-06T06:26:51.889Z,5.50
2022-08-06T06:27:51.896Z,5.50
2022-08-06T06:28:51.893Z,5.30
2022-08-06T06:30:06.083Z,5.60
2022-08-06T06:30:53.085Z,5.40
2022-08-06T06:32:06.406Z,5.40
2022-08-06T06:32:51.896Z,5.00
2022-08-06T06:33:52.055Z,5.30
2022-08-06T06:34:51.901Z,5.30
2022-08-06T06:35:55.336Z,5.40
2022-08-06T06:36:55.147Z,5.20
2022-08-06T06:37:52.133Z,5.20
2022-08-06T06:38:52.002Z,5.50
2022-08-06T06:39:51.969Z,5.50
2022-08-06T06:41:00.070Z,5.60
2022-08-06T06:41:53.413Z,5.70
2022-08-06T06:42:51.908Z,5.70
2022-08-06T06:43:53.952Z,6.10
2022-08-06T06:45:04.012Z,5.80
2022-08-06T06:46:05.387Z,5.70
2022-08-06T06:46:51.916Z,5.50
2022-08-06T06:47:53.144Z,5.20
2022-08-06T06:48:51.924Z,5.80
2022-08-06T06:50:00.883Z,5.70
2022-08-06T06:50:51.925Z,6.10
2022-08-06T06:51:57.477Z,5.70
2022-08-06T06:52:51.923Z,5.80
2022-08-06T06:54:07.247Z,5.80
2022-08-06T06:54:59.607Z,5.60
2022-08-06T06:55:58.018Z,5.90
2022-08-06T06:56:51.928Z,5.70
2022-08-06T06:57:52.018Z,5.50
2022-08-06T06:58:51.931Z,5.50
2022-08-06T07:00:01.336Z,5.60
2022-08-06T07:01:26.666Z,6.00
2022-08-06T07:01:54.925Z,5.80
2022-08-06T07:02:52.027Z,5.10
2022-08-06T07:03:51.940Z,5.30
2022-08-06T07:04:51.938Z,5.30
2022-08-06T07:06:04.637Z,5.30
2022-08-06T07:06:57.453Z,5.30
2022-08-06T07:07:51.946Z,5.10
2022-08-06T07:08:51.944Z,5.20
2022-08-06T07:09:53.583Z,5.30
2022-08-06T07:10:51.946Z,5.30
2022-08-06T07:12:03.170Z,5.40
2022-08-06T07:12:53.784Z,5.40
2022-08-06T07:13:51.959Z,5.60
2022-08-06T07:14:58.863Z,5.50
2022-08-06T07:15:54.125Z,5.70
2022-08-06T07:16:52.094Z,5.60
2022-08-06T07:17:59.010Z,5.40
2022-08-06T07:18:53.556Z,5.90
2022-08-06T07:19:51.970Z,6.00
2022-08-06T07:20:51.976Z,6.30
2022-08-06T07:21:52.544Z,5.90
2022-08-06T07:24:03.947Z,6.20
2022-08-06T07:24:08.187Z,6.20
2022-08-06T07:24:56.930Z,6.00
2022-08-06T07:25:54.530Z,6.20
2022-08-06T07:26:52.151Z,6.50
2022-08-06T07:27:55.534Z,6.30
2022-08-06T07:28:51.979Z,6.20
2022-08-06T07:30:00.175Z,6.50
2022-08-06T07:30:51.980Z,6.50
2022-08-06T07:31:53.664Z,6.20
2022-08-06T07:32:51.981Z,5.80
2022-08-06T07:34:00.910Z,6.10
2022-08-06T07:34:53.062Z,5.60
2022-08-06T07:35:51.985Z,6.20
2022-08-06T07:36:52.999Z,6.10
2022-08-06T07:37:51.985Z,6.20
2022-08-06T07:38:51.990Z,6.20
2022-08-06T07:39:52.035Z,5.80
2022-08-06T07:40:52.897Z,6.20
2022-08-06T07:42:10.644Z,6.20
2022-08-06T07:42:51.997Z,6.20
2022-08-06T07:43:51.996Z,6.30
2022-08-06T07:44:55.968Z,6.40
2022-08-06T07:45:55.594Z,6.20
2022-08-06T07:46:52.425Z,5.90
2022-08-06T07:47:54.880Z,5.90
2022-08-06T07:48:52.431Z,5.70
2022-08-06T07:50:00.165Z,5.70
2022-08-06T07:50:52.014Z,5.80
2022-08-06T07:51:52.016Z,5.70
2022-08-06T07:52:52.020Z,5.50
2022-08-06T07:53:56.785Z,5.70
2022-08-06T07:54:52.025Z,5.60
2022-08-06T07:55:52.635Z,5.50
2022-08-06T07:57:00.443Z,5.00
2022-08-06T07:57:55.308Z,4.80
2022-08-06T07:58:52.043Z,4.80
2022-08-06T07:59:55.419Z,4.80
2022-08-06T08:00:52.051Z,4.50
2022-08-06T08:01:52.097Z,5.50
2022-08-06T08:02:52.057Z,5.40
2022-08-06T08:03:57.904Z,5.20
2022-08-06T08:04:54.035Z,5.10
2022-08-06T08:06:00.559Z,5.30
2022-08-06T08:06:52.076Z,5.30
2022-08-06T08:07:53.475Z,5.00
2022-08-06T08:08:52.091Z,4.70
2022-08-06T08:10:02.706Z,4.50
2022-08-06T08:10:52.102Z,4.50
2022-08-06T08:12:33.882Z,4.60
2022-08-06T08:12:52.409Z,4.70
2022-08-06T08:13:56.769Z,4.20
2022-08-06T08:14:52.129Z,4.60
2022-08-06T08:15:52.134Z,4.70
2022-08-06T08:16:52.157Z,4.50
2022-08-06T08:17:57.247Z,4.50
2022-08-06T08:18:52.226Z,3.90
2022-08-06T08:19:52.171Z,4.50
2022-08-06T08:20:53.902Z,4.60
2022-08-06T08:21:52.220Z,5.10
2022-08-06T08:22:52.197Z,4.60
2022-08-06T08:23:55.402Z,4.20
2022-08-06T08:24:54.686Z,4.10
2022-08-06T08:25:52.224Z,3.90
2022-08-06T08:27:16.906Z,3.80
2022-08-06T08:27:52.241Z,4.10
2022-08-06T08:28:52.257Z,4.40
2022-08-06T08:29:56.805Z,4.90
2022-08-06T08:30:52.281Z,4.70
2022-08-06T08:31:59.356Z,4.70
2022-08-06T08:32:52.298Z,4.80
2022-08-06T08:33:52.305Z,5.10
2022-08-06T08:34:53.449Z,4.70
2022-08-06T08:36:01.112Z,4.70
2022-08-06T08:36:52.338Z,5.00
2022-08-06T08:37:52.347Z,5.10
2022-08-06T08:38:52.361Z,5.00
2022-08-06T08:39:53.659Z,4.60
2022-08-06T08:40:52.390Z,3.90
2022-08-06T08:41:52.391Z,4.40
2022-08-06T08:42:55.017Z,4.10
2022-08-06T08:44:00.961Z,4.10
2022-08-06T08:44:53.800Z,4.30
2022-08-06T08:45:52.443Z,3.90
2022-08-06T08:46:57.955Z,4.10
2022-08-06T08:47:53.873Z,4.50
2022-08-06T08:48:52.481Z,3.90
2022-08-06T08:49:52.497Z,3.70
2022-08-06T08:50:52.504Z,3.70
2022-08-06T08:51:52.515Z,3.60
2022-08-06T08:52:52.538Z,3.80
2022-08-06T08:53:52.541Z,3.50
2022-08-06T08:54:52.563Z,3.50
2022-08-06T08:57:07.017Z,3.50
2022-08-06T08:57:07.939Z,2.90
2022-08-06T08:58:41.735Z,3.40
2022-08-06T08:59:02.743Z,3.30
2022-08-06T08:59:57.645Z,4.10
2022-08-06T09:00:54.682Z,4.40
2022-08-06T09:01:57.491Z,4.20
2022-08-06T09:02:52.846Z,4.70
2022-08-06T09:03:52.694Z,4.60
2022-08-06T09:04:52.703Z,4.70
2022-08-06T09:05:53.476Z,4.70
2022-08-06T09:06:52.732Z,4.80
2022-08-06T09:08:01.391Z,4.10
2022-08-06T09:09:01.589Z,4.20
2022-08-06T09:10:01.402Z,4.20
2022-08-06T09:10:52.783Z,4.40
2022-08-06T09:12:04.509Z,4.80
2022-08-06T09:12:52.819Z,5.00
2022-08-06T09:13:52.819Z,4.80
2022-08-06T09:14:52.837Z,4.90
2022-08-06T09:15:52.860Z,4.80
2022-08-06T09:16:52.879Z,4.60
2022-08-06T09:18:11.931Z,4.60
2022-08-06T09:18:52.898Z,4.90
2022-08-06T09:19:52.910Z,4.80
2022-08-06T09:20:52.929Z,4.80
2022-08-06T09:21:52.945Z,4.70
2022-08-06T09:22:52.955Z,5.20
2022-08-06T09:23:57.936Z,5.10
2022-08-06T09:24:52.987Z,5.10
2022-08-06T09:25:53.001Z,5.20
2022-08-06T09:26:54.118Z,5.00
2022-08-06T09:27:53.039Z,4.70
2022-08-06T09:28:53.056Z,4.80
2022-08-06T09:30:04.537Z,5.20
2022-08-06T09:30:53.091Z,5.10
2022-08-06T09:31:54.423Z,5.10
2022-08-06T09:32:55.352Z,5.10
2022-08-06T09:34:31.275Z,4.70
2022-08-06T09:34:53.161Z,5.00
2022-08-06T09:35:53.179Z,4.70
2022-08-06T09:36:54.495Z,5.00
2022-08-06T09:37:55.963Z,4.80
2022-08-06T09:38:53.232Z,4.60
2022-08-06T09:40:05.219Z,4.90
2022-08-06T09:40:53.269Z,5.00
2022-08-06T10:56:54.327Z,4.90
2022-08-06T10:57:54.342Z,4.90
2022-08-06T10:58:54.364Z,4.90
2022-08-06T10:59:54.387Z,5.20
2022-08-06T11:00:56.344Z,5.10
2022-08-06T11:01:54.859Z,6.30
2022-08-06T11:02:57.096Z,5.20
2022-08-06T11:03:56.102Z,5.00
2022-08-06T11:04:54.674Z,5.10
2022-08-06T11:05:54.703Z,5.40
2022-08-06T11:06:54.533Z,4.90
2022-08-06T11:08:08.559Z,5.00
2022-08-06T11:08:58.881Z,5.00
2022-08-06T11:10:01.879Z,5.00
2022-08-06T11:10:54.614Z,5.20
2022-08-06T11:12:05.455Z,5.40
2022-08-06T11:12:54.659Z,5.40
2022-08-06T11:13:54.683Z,5.30
2022-08-06T11:14:54.694Z,5.20
2022-08-06T11:15:54.715Z,5.10
2022-08-06T11:16:54.741Z,4.40
2022-08-06T11:17:54.755Z,4.40
2022-08-06T11:18:54.777Z,4.40
2022-08-06T11:19:56.486Z,4.10
2022-08-06T11:20:54.821Z,4.40
2022-08-06T11:21:59.145Z,4.60
2022-08-06T11:22:59.758Z,4.40
2022-08-06T11:24:00.949Z,4.10
2022-08-06T11:24:54.900Z,4.00
2022-08-06T11:25:54.918Z,4.20
2022-08-06T11:26:56.647Z,2.80
2022-08-06T11:27:55.184Z,2.80
2022-08-06T11:28:54.984Z,3.20
2022-08-06T11:30:03.493Z,4.10
2022-08-06T11:30:55.022Z,5.00
2022-08-06T11:31:57.505Z,5.00
2022-08-06T11:32:55.057Z,4.80
2022-08-06T11:33:55.076Z,5.60
2022-08-06T11:34:55.091Z,4.80
2022-08-06T11:35:55.108Z,4.80
2022-08-06T11:36:57.723Z,4.90
2022-08-06T11:38:02.755Z,4.90
2022-08-06T11:38:59.301Z,3.90
2022-08-06T11:39:55.259Z,5.10
2022-08-06T11:40:55.211Z,5.10
2022-08-06T11:41:57.701Z,5.10
2022-08-06T11:42:55.235Z,5.40
2022-08-06T11:44:03.341Z,5.10
2022-08-06T11:45:05.064Z,5.40
2022-08-06T11:46:20.019Z,5.30
2022-08-06T11:46:55.307Z,4.90
2022-08-06T11:47:55.321Z,5.20
2022-08-06T11:48:55.342Z,5.10
2022-08-06T11:49:57.675Z,4.90
2022-08-06T11:50:55.374Z,5.50
2022-08-06T11:52:03.915Z,5.40
2022-08-06T11:52:56.119Z,5.10
2022-08-06T11:53:55.418Z,5.20
2022-08-06T11:54:55.437Z,5.00
2022-08-06T11:55:55.454Z,5.00
2022-08-06T11:56:55.466Z,5.20
2022-08-06T11:57:55.892Z,5.40
2022-08-06T11:58:55.498Z,5.30
2022-08-06T11:59:55.514Z,5.20
2022-08-06T12:00:55.532Z,5.20
2022-08-06T12:01:55.565Z,4.30
2022-08-06T12:02:56.699Z,3.80
2022-08-06T12:03:55.571Z,3.90
2022-08-06T12:04:55.599Z,3.90
2022-08-06T12:05:57.360Z,3.90
2022-08-06T12:06:55.610Z,3.70
2022-08-06T12:07:55.630Z,3.40
2022-08-06T12:08:55.646Z,3.30
2022-08-06T12:09:55.656Z,3.60
2022-08-06T12:10:55.678Z,3.70
2022-08-06T12:11:55.816Z,3.70
2022-08-06T12:12:55.705Z,3.50
2022-08-06T12:14:31.801Z,3.20
2022-08-06T12:14:55.732Z,3.40
2022-08-06T12:16:00.083Z,3.20
2022-08-06T12:16:58.620Z,3.10
2022-08-06T12:18:20.385Z,3.10
2022-08-06T12:18:55.783Z,3.30
2022-08-06T12:20:00.986Z,3.40
2022-08-06T12:20:55.814Z,3.50
2022-08-06T12:21:56.982Z,3.50
2022-08-06T12:22:55.840Z,3.50
2022-08-06T12:23:57.175Z,3.40
2022-08-06T12:25:10.840Z,3.60
2022-08-06T12:25:55.875Z,3.50
2022-08-06T12:26:55.887Z,3.40
2022-08-06T12:27:55.908Z,3.20
2022-08-06T12:28:55.915Z,3.20
2022-08-06T12:29:55.927Z,3.20
2022-08-06T12:30:55.951Z,3.20
2022-08-06T12:31:55.960Z,3.10
2022-08-06T12:32:57.767Z,2.90
2022-08-06T12:33:56.050Z,3.20
2022-08-06T12:34:58.604Z,3.30
2022-08-06T12:35:56.471Z,3.00
2022-08-06T12:36:56.772Z,3.20
2022-08-06T12:37:56.030Z,3.20
2022-08-06T12:38:56.165Z,3.00
2022-08-06T12:39:56.088Z,3.10
2022-08-06T12:40:56.261Z,3.20
2022-08-06T12:41:56.073Z,3.10
2022-08-06T12:42:56.098Z,3.20
2022-08-06T12:43:57.540Z,3.20
2022-08-06T12:44:58.957Z,3.10
2022-08-06T12:46:06.977Z,3.20
2022-08-06T12:46:56.135Z,3.30
2022-08-06T12:48:02.547Z,3.30
2022-08-06T12:48:56.160Z,3.40
2022-08-06T12:49:56.174Z,3.50
2022-08-06T12:50:56.187Z,3.60
2022-08-06T12:51:56.196Z,4.00
2022-08-06T12:52:56.208Z,3.80
2022-08-06T12:53:56.220Z,3.60
2022-08-06T12:54:56.229Z,3.60
2022-08-06T12:55:56.951Z,3.30
2022-08-06T12:56:56.262Z,3.40
2022-08-06T12:57:59.967Z,3.50
2022-08-06T12:58:56.275Z,3.30
2022-08-06T12:59:56.291Z,3.50
2022-08-06T13:00:56.357Z,3.50
2022-08-06T13:02:07.853Z,3.50
2022-08-06T13:02:56.356Z,3.40
2022-08-06T13:04:01.533Z,3.60
2022-08-06T13:04:56.347Z,3.50
2022-08-06T13:05:59.897Z,3.70
2022-08-06T13:06:56.365Z,3.70
2022-08-06T13:07:56.374Z,3.70
2022-08-06T13:08:56.388Z,3.50
2022-08-06T13:10:32.845Z,3.90
2022-08-06T13:10:56.411Z,3.80
2022-08-06T13:11:56.421Z,4.10
2022-08-06T13:14:15.429Z,4.10
2022-08-06T13:14:15.707Z,4.10
2022-08-06T13:15:01.109Z,4.40
2022-08-06T13:15:56.462Z,4.40
2022-08-06T13:16:57.309Z,4.30
2022-08-06T13:17:59.784Z,4.20
2022-08-06T13:18:56.485Z,4.30
2022-08-06T13:19:56.498Z,4.20
2022-08-06T13:20:56.785Z,4.60
2022-08-06T13:21:58.175Z,4.10
2022-08-06T13:22:56.528Z,4.20
2022-08-06T13:23:56.535Z,4.40
2022-08-06T13:25:03.552Z,5.20
2022-08-06T13:26:10.561Z,5.50
2022-08-06T13:26:56.564Z,5.50
2022-08-06T13:27:56.570Z,5.70
2022-08-06T13:30:33.725Z,5.90
2022-08-06T13:30:34.194Z,5.10
2022-08-06T13:30:57.408Z,5.10
2022-08-06T13:31:58.540Z,5.30
2022-08-06T13:32:58.347Z,4.80
2022-08-06T13:34:04.723Z,4.60
2022-08-06T13:34:56.638Z,4.40
2022-08-06T13:35:56.647Z,4.40
2022-08-06T13:36:56.754Z,4.70
2022-08-06T13:38:15.197Z,4.40
2022-08-06T13:38:56.693Z,4.60
2022-08-06T13:39:56.682Z,4.30
2022-08-06T13:41:03.270Z,4.20
2022-08-06T13:42:01.810Z,4.10
2022-08-06T13:42:56.710Z,3.80
2022-08-06T13:43:57.885Z,4.20
2022-08-06T13:44:56.731Z,4.40
2022-08-06T13:46:00.086Z,4.30
2022-08-06T13:46:56.740Z,4.40
2022-08-06T13:48:00.344Z,4.30
2022-08-06T13:48:58.503Z,4.00
2022-08-06T13:50:03.884Z,4.50
2022-08-06T13:50:56.776Z,4.20
2022-08-06T13:51:56.784Z,4.30
2022-08-06T13:53:01.769Z,4.30
2022-08-06T13:53:56.973Z,4.40
2022-08-06T13:54:56.809Z,4.30
2022-08-06T13:56:02.627Z,4.70
2022-08-06T13:56:56.824Z,4.50
2022-08-06T13:57:56.837Z,4.30
2022-08-06T13:58:56.947Z,4.30
2022-08-06T13:59:56.848Z,4.60
2022-08-06T14:00:56.859Z,4.10
2022-08-06T14:01:56.866Z,4.00
2022-08-06T14:02:56.934Z,3.90
2022-08-06T14:03:56.911Z,4.00
2022-08-06T14:04:56.889Z,4.00
2022-08-06T14:05:57.192Z,4.10
2022-08-06T14:06:59.402Z,3.70
2022-08-06T14:07:56.915Z,4.00
2022-08-06T14:08:57.096Z,3.90
2022-08-06T14:10:08.166Z,4.00
2022-08-06T14:10:56.937Z,4.00
2022-08-06T14:11:56.940Z,4.40
2022-08-06T14:12:56.956Z,4.40
2022-08-06T14:13:56.961Z,4.50
2022-08-06T14:14:56.967Z,4.20
2022-08-06T14:15:56.974Z,4.40
2022-08-06T14:16:56.988Z,4.30
2022-08-06T14:17:56.990Z,4.50
2022-08-06T14:19:00.591Z,4.50
2022-08-06T14:20:10.164Z,4.40
2022-08-06T14:20:57.020Z,4.80
2022-08-06T14:21:57.024Z,4.80
2022-08-06T14:22:57.030Z,4.50
2022-08-06T14:24:01.011Z,4.70
2022-08-06T14:24:57.045Z,4.40
2022-08-06T14:26:03.610Z,4.60
2022-08-06T14:26:57.056Z,4.60
2022-08-06T14:27:57.069Z,4.40
2022-08-06T14:30:27.220Z,4.70
2022-08-06T14:30:29.139Z,4.90
2022-08-06T14:30:57.089Z,4.70
2022-08-06T14:31:58.452Z,4.80
2022-08-06T14:32:57.112Z,4.80
2022-08-06T14:33:59.621Z,4.60